createdAt,value
2019-01-23T00:00:29.718Z,44.10
2019-01-23T00:10:35.319Z,44.20
2019-01-23T00:20:41.062Z,44.40
2019-01-23T00:30:46.461Z,44.50
2019-01-23T00:40:51.918Z,44.50
2019-01-23T00:50:57.557Z,44.70
2019-01-23T01:01:03.141Z,44.70
2019-01-23T01:11:08.531Z,44.80
2019-01-23T01:21:13.955Z,44.90
2019-01-23T01:31:19.529Z,45.00
2019-01-23T01:41:24.842Z,45.40
2019-01-23T01:51:30.217Z,45.10
2019-01-23T02:01:36.137Z,45.40
2019-01-23T02:11:42.702Z,45.20
2019-01-23T02:21:48.153Z,45.50
2019-01-23T02:31:53.616Z,45.40
2019-01-23T02:41:58.939Z,45.40
2019-01-23T02:52:04.428Z,45.40
2019-01-23T03:02:09.809Z,45.50
2019-01-23T03:12:16.404Z,45.50
2019-01-23T03:22:21.753Z,45.60
2019-01-23T03:32:27.112Z,45.70
2019-01-23T03:42:32.548Z,46.40
2019-01-23T03:52:39.363Z,45.80
2019-01-23T04:02:44.754Z,46.60
2019-01-23T04:12:50.128Z,46.40
2019-01-23T04:22:55.711Z,46.10
2019-01-23T04:33:01.226Z,46.00
2019-01-23T04:43:06.691Z,46.00
2019-01-23T04:53:18.146Z,46.00
2019-01-23T05:03:23.704Z,46.10
2019-01-23T05:13:29.164Z,46.10
2019-01-23T05:23:34.575Z,46.30
2019-01-23T05:33:40.027Z,46.30
2019-01-23T05:43:45.475Z,46.60
2019-01-23T05:53:50.936Z,46.40
2019-01-23T06:03:56.337Z,46.40
2019-01-23T06:14:01.929Z,46.30
2019-01-23T06:24:07.520Z,46.40
2019-01-23T06:34:13.034Z,46.40
2019-01-23T06:44:18.807Z,46.50
2019-01-23T06:54:24.235Z,46.50
2019-01-23T07:04:29.720Z,46.50
2019-01-23T07:14:35.224Z,46.50
2019-01-23T07:24:40.747Z,46.50
2019-01-23T07:34:46.113Z,46.70
2019-01-23T07:44:51.636Z,46.80
2019-01-23T07:54:58.347Z,46.80
2019-01-23T08:05:03.720Z,46.90
2019-01-23T08:15:24.414Z,47.10
2019-01-23T08:25:30.403Z,47.10
2019-01-23T08:35:36.481Z,47.10
2019-01-23T08:45:42.101Z,47.20
2019-01-23T08:55:53.502Z,47.30
2019-01-23T09:05:54.839Z,47.60
2019-01-23T09:16:00.350Z,47.50
2019-01-23T09:26:05.936Z,46.60
2019-01-23T09:37:06.027Z,47.40
2019-01-23T09:47:29.115Z,48.30
2019-01-23T09:57:38.400Z,49.00
2019-01-23T10:07:43.755Z,48.40
2019-01-23T10:17:50.970Z,48.60
2019-01-23T10:27:56.543Z,49.10
2019-01-23T10:38:02.034Z,42.50
2019-01-23T10:48:08.079Z,43.70
2019-01-23T10:58:13.572Z,43.10
2019-01-23T11:08:20.817Z,44.20
2019-01-23T11:18:26.321Z,44.90
2019-01-23T11:28:31.956Z,45.00
2019-01-23T11:38:37.321Z,46.50
2019-01-23T11:48:42.703Z,46.50
2019-01-23T11:58:48.123Z,44.90
2019-01-23T12:08:53.519Z,43.40
2019-01-23T12:18:59.209Z,43.30
2019-01-23T12:29:06.365Z,43.40
2019-01-23T12:39:11.716Z,43.30
2019-01-23T12:49:17.137Z,43.70
2019-01-23T12:59:22.536Z,44.00
2019-01-23T13:09:30.184Z,44.30
2019-01-23T13:19:36.553Z,44.30
2019-01-23T13:29:41.977Z,44.60
2019-01-23T13:39:47.487Z,44.60
2019-01-23T13:49:53.367Z,44.70
2019-01-23T13:59:59.613Z,44.70
2019-01-23T14:10:05.369Z,44.70
2019-01-23T14:20:13.332Z,45.40
2019-01-23T14:30:40.265Z,44.80
2019-01-23T14:40:45.907Z,44.90
2019-01-23T14:50:51.249Z,44.80
2019-01-23T15:00:56.635Z,45.10
2019-01-23T15:11:02.068Z,45.10
2019-01-23T15:21:07.812Z,45.20
2019-01-23T15:31:13.471Z,45.30
2019-01-23T15:41:19.039Z,45.20
2019-01-23T15:51:24.544Z,45.30
2019-01-23T16:01:30.065Z,45.90
2019-01-23T16:11:35.499Z,45.40
2019-01-23T16:21:45.609Z,45.50
2019-01-23T16:31:48.198Z,45.40
2019-01-23T16:41:53.550Z,45.50
2019-01-23T16:51:59.540Z,45.60
2019-01-23T17:02:05.291Z,45.50
2019-01-23T17:12:12.470Z,45.30
2019-01-23T17:22:19.283Z,45.20
2019-01-23T17:32:24.755Z,45.50
2019-01-23T17:42:30.117Z,45.90
2019-01-23T17:52:35.511Z,46.10
2019-01-23T18:02:43.815Z,45.20
2019-01-23T18:12:49.177Z,45.20
2019-01-23T18:22:54.575Z,45.30
2019-01-23T18:33:02.154Z,45.40
2019-01-23T18:44:11.368Z,45.40
2019-01-23T18:54:16.859Z,45.30
2019-01-23T19:04:22.423Z,45.40
2019-01-23T19:14:27.786Z,45.30
2019-01-23T19:24:33.310Z,45.50
2019-01-23T19:34:39.145Z,45.40
2019-01-23T19:44:45.093Z,45.50
2019-01-23T19:54:50.631Z,46.10
2019-01-23T20:04:56.367Z,45.50
2019-01-23T20:15:01.886Z,45.50
2019-01-23T20:25:12.147Z,45.50
2019-01-23T20:35:19.724Z,45.40
2019-01-23T20:45:25.372Z,45.40
2019-01-23T20:55:30.968Z,45.30
2019-01-23T21:05:37.575Z,45.40
2019-01-23T21:15:43.000Z,45.40
2019-01-23T21:25:48.364Z,45.40
2019-01-23T21:35:53.779Z,45.40
2019-01-23T21:45:59.176Z,45.30
2019-01-23T21:56:04.710Z,45.40
2019-01-23T22:06:10.130Z,45.30
2019-01-23T22:16:15.572Z,45.20
2019-01-23T22:26:20.971Z,45.10
2019-01-23T22:36:26.348Z,45.10
2019-01-23T22:46:31.835Z,45.10
2019-01-23T22:56:37.372Z,45.10
2019-01-23T23:06:42.818Z,45.20
2019-01-23T23:16:48.376Z,45.00
2019-01-23T23:26:54.093Z,44.90
2019-01-23T23:36:59.529Z,45.00
2019-01-23T23:47:04.907Z,45.00
2019-01-23T23:57:10.571Z,45.90
